createdAt,value
2022-08-10T00:00:03.322Z,24.77
2022-08-10T00:02:34.607Z,24.76
2022-08-10T00:05:03.333Z,24.73
2022-08-10T00:07:31.434Z,24.72
2022-08-10T00:09:59.672Z,24.69
2022-08-10T00:12:54.629Z,24.69
2022-08-10T00:15:44.121Z,24.67
2022-08-10T00:18:06.627Z,24.66
2022-08-10T00:20:34.788Z,24.63
2022-08-10T00:23:02.982Z,24.63
2022-08-10T00:25:31.354Z,24.60
2022-08-10T00:28:03.572Z,24.57
2022-08-10T00:30:32.205Z,24.56
2022-08-10T00:33:00.264Z,24.55
2022-08-10T00:35:29.825Z,24.54
2022-08-10T00:37:58.262Z,24.54
2022-08-10T00:40:37.017Z,24.54
2022-08-10T00:43:06.236Z,24.53
2022-08-10T00:45:34.408Z,24.52
2022-08-10T00:48:02.447Z,24.51
2022-08-10T00:50:31.977Z,24.48
2022-08-10T00:53:00.049Z,24.46
2022-08-10T00:55:28.329Z,24.45
2022-08-10T00:57:56.502Z,24.43
2022-08-10T01:00:24.653Z,24.41
2022-08-10T01:02:53.261Z,24.37
2022-08-10T01:05:21.548Z,24.35
2022-08-10T01:08:03.184Z,24.33
2022-08-10T01:10:35.873Z,24.30
2022-08-10T01:13:07.943Z,24.29
2022-08-10T01:15:38.124Z,24.27
2022-08-10T01:18:06.958Z,24.25
2022-08-10T01:20:37.343Z,24.23
2022-08-10T01:23:34.370Z,24.21
2022-08-10T01:26:40.878Z,24.18
2022-08-10T01:29:54.144Z,24.15
2022-08-10T01:32:27.865Z,24.11
2022-08-10T01:35:00.792Z,24.09
2022-08-10T01:37:31.839Z,24.06
2022-08-10T01:40:01.011Z,24.04
2022-08-10T01:42:29.724Z,24.03
2022-08-10T01:45:00.953Z,24.01
2022-08-10T01:47:48.592Z,24.00
2022-08-10T01:50:20.336Z,23.97
2022-08-10T01:52:48.874Z,23.96
2022-08-10T01:55:16.976Z,23.95
2022-08-10T01:57:45.167Z,23.94
2022-08-10T02:00:15.273Z,23.92
2022-08-10T02:02:43.479Z,23.91
2022-08-10T02:05:11.580Z,23.87
2022-08-10T02:07:39.712Z,23.86
2022-08-10T02:10:10.977Z,23.84
2022-08-10T02:12:39.221Z,23.83
2022-08-10T02:15:09.877Z,23.82
2022-08-10T02:17:59.157Z,23.78
2022-08-10T02:20:32.043Z,23.77
2022-08-10T02:23:02.888Z,23.76
2022-08-10T02:25:41.738Z,23.74
2022-08-10T02:28:12.482Z,23.72
2022-08-10T02:30:56.396Z,23.68
2022-08-10T02:33:27.379Z,23.67
2022-08-10T02:35:55.972Z,23.64
2022-08-10T02:38:59.456Z,23.62
2022-08-10T02:45:13.343Z,23.62
2022-08-10T02:45:22.329Z,23.60
2022-08-10T02:46:59.155Z,23.58
2022-08-10T02:49:32.752Z,23.57
2022-08-10T02:52:07.138Z,23.56
2022-08-10T02:54:38.548Z,23.55
2022-08-10T02:57:09.990Z,23.53
2022-08-10T02:59:40.540Z,23.52
2022-08-10T03:02:10.347Z,23.51
2022-08-10T03:04:54.602Z,23.51
2022-08-10T03:07:44.495Z,23.49
2022-08-10T03:10:16.381Z,23.46
2022-08-10T03:12:44.679Z,23.45
2022-08-10T03:15:15.620Z,23.44
2022-08-10T03:17:57.418Z,23.42
2022-08-10T03:20:37.019Z,23.40
2022-08-10T03:23:10.835Z,23.38
2022-08-10T03:25:38.996Z,23.37
2022-08-10T03:28:07.247Z,23.35
2022-08-10T03:30:35.409Z,23.32
2022-08-10T03:33:04.531Z,23.31
2022-08-10T03:35:34.146Z,23.29
2022-08-10T03:38:02.303Z,23.27
2022-08-10T03:40:35.845Z,23.28
2022-08-10T03:43:16.360Z,23.25
2022-08-10T03:45:54.537Z,23.24
2022-08-10T03:48:23.898Z,23.21
2022-08-10T03:50:53.374Z,23.19
2022-08-10T03:54:03.353Z,23.19
2022-08-10T03:56:28.982Z,23.16
2022-08-10T03:58:58.315Z,23.15
2022-08-10T04:02:46.138Z,23.14
2022-08-10T04:04:19.234Z,23.11
2022-08-10T04:06:54.777Z,23.10
2022-08-10T04:09:23.644Z,23.08
2022-08-10T04:11:51.708Z,23.08
2022-08-10T04:14:48.974Z,23.08
2022-08-10T04:17:13.358Z,23.06
2022-08-10T04:19:45.907Z,23.03
2022-08-10T04:22:17.944Z,23.03
2022-08-10T04:24:46.440Z,23.02
2022-08-10T04:27:14.511Z,23.00
2022-08-10T04:29:42.895Z,22.99
2022-08-10T04:32:11.288Z,22.99
2022-08-10T04:34:39.975Z,22.97
2022-08-10T04:37:09.265Z,22.98
2022-08-10T04:39:40.796Z,22.99
2022-08-10T04:42:09.135Z,23.00
2022-08-10T04:44:37.480Z,22.93
2022-08-10T04:47:05.883Z,22.89
2022-08-10T04:49:55.654Z,22.89
2022-08-10T04:52:25.235Z,22.92
2022-08-10T04:54:54.872Z,22.94
2022-08-10T04:57:23.022Z,22.95
2022-08-10T04:59:51.106Z,22.95
2022-08-10T05:02:30.169Z,22.96
2022-08-10T05:05:00.224Z,22.96
2022-08-10T05:07:28.376Z,22.97
2022-08-10T05:10:04.509Z,22.96
2022-08-10T05:12:36.185Z,22.98
2022-08-10T05:15:07.423Z,22.97
2022-08-10T05:17:35.978Z,22.99
2022-08-10T05:20:06.830Z,22.99
2022-08-10T05:22:39.839Z,23.00
2022-08-10T05:25:11.027Z,22.99
2022-08-10T05:27:39.669Z,22.99
2022-08-10T05:30:08.678Z,22.97
2022-08-10T05:32:59.124Z,22.97
2022-08-10T05:35:25.895Z,22.96
2022-08-10T05:38:09.626Z,22.94
2022-08-10T05:40:47.022Z,22.95
2022-08-10T05:43:17.984Z,22.95
2022-08-10T05:46:17.398Z,22.94
2022-08-10T05:48:57.587Z,22.89
2022-08-10T05:51:22.605Z,22.85
2022-08-10T05:54:01.701Z,22.83
2022-08-10T05:56:56.056Z,22.80
2022-08-10T06:00:35.327Z,22.79
2022-08-10T06:02:32.897Z,22.74
2022-08-10T06:05:01.706Z,22.74
2022-08-10T06:07:29.836Z,22.73
2022-08-10T06:09:59.755Z,22.72
2022-08-10T06:12:31.435Z,22.70
2022-08-10T06:15:05.358Z,22.68
2022-08-10T06:17:34.509Z,22.74
2022-08-10T06:20:02.585Z,22.87
2022-08-10T06:22:32.348Z,22.97
2022-08-10T06:25:27.275Z,23.05
2022-08-10T06:27:50.128Z,23.14
2022-08-10T06:30:20.536Z,23.23
2022-08-10T06:32:49.317Z,23.29
2022-08-10T06:35:17.528Z,23.36
2022-08-10T06:37:50.941Z,23.45
2022-08-10T06:40:20.330Z,23.50
2022-08-10T06:42:50.175Z,23.57
2022-08-10T06:45:19.073Z,23.63
2022-08-10T06:47:48.020Z,23.69
2022-08-10T06:50:45.588Z,23.73
2022-08-10T06:53:07.183Z,23.67
2022-08-10T06:55:49.877Z,23.61
2022-08-10T06:58:26.932Z,23.64
2022-08-10T07:00:55.552Z,23.69
2022-08-10T07:03:25.443Z,23.71
2022-08-10T07:05:53.695Z,23.74
2022-08-10T07:08:22.940Z,23.76
2022-08-10T07:10:51.190Z,23.78
2022-08-10T07:14:15.428Z,23.78
2022-08-10T07:16:12.437Z,23.82
2022-08-10T07:18:40.591Z,23.83
2022-08-10T07:21:08.729Z,23.86
2022-08-10T07:23:58.664Z,23.88
2022-08-10T07:26:25.037Z,23.90
2022-08-10T07:28:54.092Z,23.91
2022-08-10T07:31:36.035Z,23.90
2022-08-10T07:34:12.052Z,23.88
2022-08-10T07:36:49.799Z,23.86
2022-08-10T07:39:17.951Z,23.86
2022-08-10T07:42:06.673Z,23.86
2022-08-10T07:44:34.732Z,23.87
2022-08-10T07:47:04.312Z,23.88
2022-08-10T07:49:35.672Z,23.89
2022-08-10T07:52:04.976Z,23.90
2022-08-10T07:54:33.086Z,23.91
2022-08-10T07:57:03.017Z,23.93
2022-08-10T07:59:33.048Z,23.92
2022-08-10T08:02:01.217Z,23.94
2022-08-10T08:04:31.878Z,23.98
2022-08-10T08:07:00.473Z,24.00
2022-08-10T08:09:28.597Z,24.02
2022-08-10T08:11:56.730Z,24.04
2022-08-10T08:14:24.896Z,24.06
2022-08-10T08:16:53.660Z,24.06
2022-08-10T08:19:37.512Z,24.08
2022-08-10T08:24:04.782Z,24.09
2022-08-10T08:25:01.533Z,24.11
2022-08-10T08:27:30.211Z,24.15
2022-08-10T08:29:58.390Z,24.16
2022-08-10T08:32:27.280Z,24.18
2022-08-10T08:34:57.733Z,24.19
2022-08-10T08:38:29.486Z,24.21
2022-08-10T08:40:18.396Z,24.24
2022-08-10T08:43:07.730Z,24.28
2022-08-10T08:46:00.654Z,24.30
2022-08-10T08:48:39.264Z,24.31
2022-08-10T08:51:14.800Z,24.33
2022-08-10T08:54:10.077Z,24.32
2022-08-10T08:56:45.749Z,24.35
2022-08-10T08:59:26.194Z,24.36
2022-08-10T09:02:06.111Z,24.37
2022-08-10T09:05:01.794Z,24.37
2022-08-10T09:08:02.282Z,24.39
2022-08-10T09:10:38.779Z,24.43
2022-08-10T09:13:09.874Z,24.48
2022-08-10T09:15:41.638Z,24.54
2022-08-10T09:18:14.068Z,24.56
2022-08-10T09:20:46.464Z,24.57
2022-08-10T09:23:18.955Z,24.61
2022-08-10T09:25:52.708Z,24.63
2022-08-10T09:28:26.511Z,24.66
2022-08-10T09:31:21.513Z,24.68
2022-08-10T09:36:29.892Z,24.68
2022-08-10T09:36:45.408Z,24.70
2022-08-10T09:40:06.585Z,24.71
2022-08-10T09:42:14.561Z,24.71
2022-08-10T09:44:57.958Z,24.73
2022-08-10T09:47:58.575Z,24.74
2022-08-10T09:50:25.940Z,24.73
2022-08-10T09:53:04.262Z,24.75
2022-08-10T09:56:18.537Z,24.76
2022-08-10T09:58:35.792Z,24.77
2022-08-10T10:01:07.596Z,24.77
2022-08-10T10:04:04.996Z,24.79
2022-08-10T10:06:37.969Z,24.80
2022-08-10T10:09:13.693Z,24.80
2022-08-10T10:11:52.180Z,24.81
2022-08-10T10:14:26.663Z,24.82
2022-08-10T10:17:03.099Z,24.84
2022-08-10T10:19:49.248Z,24.83
2022-08-10T10:22:29.445Z,24.84
2022-08-10T10:25:02.276Z,24.86
2022-08-10T10:27:51.432Z,24.86
2022-08-10T10:30:20.926Z,24.87
2022-08-10T10:32:57.900Z,24.88
2022-08-10T10:35:30.783Z,24.89
2022-08-10T10:38:01.713Z,24.89
2022-08-10T10:40:35.708Z,24.91
2022-08-10T10:43:07.211Z,24.90
2022-08-10T10:45:50.765Z,24.90
2022-08-10T10:48:28.942Z,24.93
2022-08-10T10:51:03.322Z,24.94
2022-08-10T10:53:36.691Z,24.95
2022-08-10T10:56:15.156Z,24.95
2022-08-10T10:58:50.028Z,24.96
2022-08-10T11:01:24.921Z,24.96
2022-08-10T11:04:02.868Z,24.96
2022-08-10T11:06:40.706Z,24.98
2022-08-10T11:10:06.089Z,24.99
2022-08-10T11:12:03.046Z,25.01
2022-08-10T11:14:37.183Z,25.02
2022-08-10T11:17:21.613Z,25.01
2022-08-10T11:20:02.675Z,25.01
2022-08-10T11:22:36.827Z,25.01
2022-08-10T11:25:09.827Z,25.01
2022-08-10T11:27:43.989Z,25.02
2022-08-10T11:30:13.929Z,25.04
2022-08-10T11:32:53.706Z,25.04
2022-08-10T11:35:29.480Z,25.06
2022-08-10T11:38:30.318Z,25.06
2022-08-10T11:41:12.688Z,25.08
2022-08-10T11:43:53.013Z,25.07
2022-08-10T11:46:28.445Z,25.09
2022-08-10T11:49:07.567Z,25.09
2022-08-10T11:51:40.404Z,25.11
2022-08-10T11:54:10.246Z,25.15
2022-08-10T11:56:42.772Z,25.19
2022-08-10T11:59:28.356Z,25.22
2022-08-10T12:01:56.526Z,25.24
2022-08-10T12:04:26.020Z,25.24
2022-08-10T12:06:55.977Z,25.21
2022-08-10T12:10:10.083Z,25.20
2022-08-10T12:12:15.131Z,25.19
2022-08-10T12:14:48.227Z,25.21
2022-08-10T12:17:18.420Z,25.22
2022-08-10T12:20:01.942Z,25.23
2022-08-10T12:22:34.527Z,25.24
2022-08-10T12:25:04.193Z,25.25
2022-08-10T12:27:34.713Z,25.26
2022-08-10T12:30:07.358Z,25.27
2022-08-10T12:32:44.580Z,25.27
2022-08-10T12:35:22.859Z,25.28
2022-08-10T12:38:04.264Z,25.29
2022-08-10T12:40:39.008Z,25.30
2022-08-10T12:44:05.111Z,25.31
2022-08-10T12:46:13.728Z,25.31
2022-08-10T12:48:45.442Z,25.33
2022-08-10T12:51:18.551Z,25.33
2022-08-10T12:53:53.293Z,25.34
2022-08-10T12:56:23.849Z,25.35
2022-08-10T12:58:57.431Z,25.38
2022-08-10T13:02:07.955Z,25.39
2022-08-10T13:04:20.874Z,25.40
2022-08-10T13:06:54.016Z,25.41
2022-08-10T13:09:22.052Z,25.43
2022-08-10T13:12:44.405Z,25.43
2022-08-10T13:14:43.157Z,25.43
2022-08-10T13:17:11.307Z,25.44
2022-08-10T13:19:54.464Z,25.43
2022-08-10T13:22:28.541Z,25.43
2022-08-10T13:25:00.168Z,25.43
2022-08-10T13:28:02.532Z,25.45
2022-08-10T13:30:35.509Z,25.45
2022-08-10T13:33:06.300Z,25.49
2022-08-10T13:35:34.555Z,25.51
2022-08-10T13:38:04.107Z,25.54
2022-08-10T13:40:32.767Z,25.53
2022-08-10T13:43:01.336Z,25.54
2022-08-10T13:45:29.435Z,25.51
2022-08-10T13:48:09.063Z,25.51
2022-08-10T13:50:37.629Z,25.50
2022-08-10T13:53:14.452Z,25.50
2022-08-10T13:55:53.386Z,25.51
2022-08-10T13:58:24.835Z,25.51
2022-08-10T14:00:53.676Z,25.51
2022-08-10T14:03:21.884Z,25.51
2022-08-10T14:05:51.845Z,25.51
2022-08-10T14:08:22.569Z,25.51
2022-08-10T14:11:08.763Z,25.51
2022-08-10T14:13:39.837Z,25.51
2022-08-10T14:16:08.596Z,25.53
2022-08-10T14:18:36.700Z,25.53
2022-08-10T14:21:05.786Z,25.55
2022-08-10T14:23:40.226Z,25.56
2022-08-10T14:26:09.505Z,25.57
2022-08-10T14:28:39.744Z,25.58
2022-08-10T14:31:09.729Z,25.59
2022-08-10T14:33:37.943Z,25.60
2022-08-10T14:36:19.444Z,25.60
2022-08-10T14:38:53.290Z,25.60
2022-08-10T14:42:03.422Z,25.61
2022-08-10T14:44:16.728Z,25.62
2022-08-10T14:46:46.851Z,25.61
2022-08-10T14:49:26.667Z,25.61
2022-08-10T14:52:00.725Z,25.61
2022-08-10T14:54:30.684Z,25.63
2022-08-10T14:57:11.260Z,25.63
2022-08-10T15:00:22.819Z,25.63
2022-08-10T15:02:39.797Z,25.64
2022-08-10T15:05:09.932Z,25.65
2022-08-10T15:07:38.196Z,25.65
2022-08-10T15:10:09.213Z,25.65
2022-08-10T15:12:38.332Z,25.64
2022-08-10T15:15:08.550Z,25.65
2022-08-10T15:17:39.584Z,25.65
2022-08-10T15:20:14.723Z,25.64
2022-08-10T15:22:46.947Z,25.65
2022-08-10T15:25:18.986Z,25.64
2022-08-10T15:27:54.611Z,25.66
2022-08-10T15:30:30.153Z,25.64
2022-08-10T15:33:20.935Z,25.64
2022-08-10T15:36:23.539Z,25.64
2022-08-10T15:38:57.538Z,25.64
2022-08-10T15:41:58.150Z,25.64
2022-08-10T15:44:24.569Z,25.63
2022-08-10T15:46:55.064Z,25.63
2022-08-10T15:49:26.313Z,25.64
2022-08-10T15:51:58.500Z,25.63
2022-08-10T15:54:33.363Z,25.63
2022-08-10T15:57:04.818Z,25.63
2022-08-10T15:59:33.943Z,25.63
2022-08-10T16:02:16.273Z,25.64
2022-08-10T16:04:48.777Z,25.63
2022-08-10T16:07:19.725Z,25.63
2022-08-10T16:10:22.603Z,25.62
2022-08-10T16:12:41.744Z,25.62
2022-08-10T16:15:13.619Z,25.62
2022-08-10T16:17:54.581Z,25.61
2022-08-10T16:20:27.507Z,25.62
2022-08-10T16:22:57.519Z,25.62
2022-08-10T16:25:48.068Z,25.61
2022-08-10T16:28:22.909Z,25.61
2022-08-10T16:30:54.439Z,25.61
2022-08-10T16:33:24.508Z,25.60
2022-08-10T16:36:12.602Z,25.59
2022-08-10T16:38:42.281Z,25.59
2022-08-10T16:42:00.409Z,25.59
2022-08-10T16:44:00.300Z,25.59
2022-08-10T16:46:28.397Z,25.58
2022-08-10T16:48:56.532Z,25.58
2022-08-10T16:51:24.580Z,25.58
2022-08-10T16:53:52.905Z,25.58
2022-08-10T16:56:24.933Z,25.58
2022-08-10T16:58:55.132Z,25.58
2022-08-10T17:01:25.485Z,25.57
2022-08-10T17:04:05.761Z,25.56
2022-08-10T17:06:37.911Z,25.57
2022-08-10T17:09:07.200Z,25.57
2022-08-10T17:11:36.684Z,25.58
2022-08-10T17:14:05.650Z,25.57
2022-08-10T17:16:36.300Z,25.57
2022-08-10T17:19:04.614Z,25.56
2022-08-10T17:21:37.498Z,25.56
2022-08-10T17:24:19.328Z,25.56
2022-08-10T17:26:47.488Z,25.56
2022-08-10T17:29:58.688Z,25.56
2022-08-10T17:32:12.199Z,25.55
2022-08-10T17:34:41.312Z,25.55
2022-08-10T17:37:14.044Z,25.55
2022-08-10T17:39:46.276Z,25.55
2022-08-10T17:42:20.820Z,25.53
2022-08-10T17:44:50.180Z,25.53
2022-08-10T17:47:19.704Z,25.53
2022-08-10T17:49:47.901Z,25.53
2022-08-10T17:52:22.768Z,25.52
2022-08-10T17:54:55.320Z,25.52
2022-08-10T17:57:23.501Z,25.52
2022-08-10T17:59:52.876Z,25.52
2022-08-10T18:02:24.698Z,25.52
2022-08-10T18:04:53.724Z,25.52
2022-08-10T18:07:23.597Z,25.52
2022-08-10T18:09:52.965Z,25.52
2022-08-10T18:12:30.218Z,25.52
2022-08-10T18:15:01.605Z,25.51
2022-08-10T18:17:37.560Z,25.52
2022-08-10T18:20:08.379Z,25.52
2022-08-10T18:22:37.576Z,25.53
2022-08-10T18:25:06.320Z,25.53
2022-08-10T18:28:01.304Z,25.51
2022-08-10T18:30:22.539Z,25.52
2022-08-10T18:32:54.124Z,25.51
2022-08-10T18:35:22.273Z,25.50
2022-08-10T18:38:04.960Z,25.51
2022-08-10T18:40:35.952Z,25.50
2022-08-10T18:44:04.618Z,25.49
2022-08-10T18:45:55.303Z,25.50
2022-08-10T18:48:25.071Z,25.50
2022-08-10T18:50:54.423Z,25.50
2022-08-10T18:53:26.629Z,25.50
2022-08-10T18:56:09.077Z,25.50
2022-08-10T18:59:02.728Z,25.49
2022-08-10T19:01:58.775Z,25.49
2022-08-10T19:04:32.720Z,25.48
2022-08-10T19:07:07.104Z,25.49
2022-08-10T19:09:50.924Z,25.46
2022-08-10T19:12:29.910Z,25.46
2022-08-10T19:15:07.005Z,25.43
2022-08-10T19:17:59.129Z,25.38
2022-08-10T19:20:32.684Z,25.37
2022-08-10T19:23:10.618Z,25.37
2022-08-10T19:26:38.017Z,25.37
2022-08-10T19:28:32.270Z,25.38
2022-08-10T19:31:03.832Z,25.39
2022-08-10T19:33:36.428Z,25.40
2022-08-10T19:36:09.994Z,25.40
2022-08-10T19:38:50.334Z,25.40
2022-08-10T19:41:30.959Z,25.40
2022-08-10T19:44:04.503Z,25.41
2022-08-10T19:46:37.367Z,25.40
2022-08-10T19:49:10.915Z,25.41
2022-08-10T19:51:58.124Z,25.39
2022-08-10T19:54:33.993Z,25.39
2022-08-10T19:57:09.005Z,25.39
2022-08-10T20:00:15.926Z,25.38
2022-08-10T20:02:45.249Z,25.37
2022-08-10T20:05:16.663Z,25.37
2022-08-10T20:07:51.425Z,25.37
2022-08-10T20:10:23.229Z,25.38
2022-08-10T20:12:55.716Z,25.38
2022-08-10T20:15:29.348Z,25.38
2022-08-10T20:17:58.455Z,25.37
2022-08-10T20:20:31.601Z,25.35
2022-08-10T20:23:12.523Z,25.35
2022-08-10T20:25:41.296Z,25.37
2022-08-10T20:28:14.849Z,25.37
2022-08-10T20:30:46.071Z,25.37
2022-08-10T20:33:17.512Z,25.38
2022-08-10T20:35:49.579Z,25.38
2022-08-10T20:38:22.424Z,25.38
2022-08-10T20:40:59.685Z,25.39
2022-08-10T20:43:30.015Z,25.39
2022-08-10T20:46:09.566Z,25.39
2022-08-10T20:48:39.580Z,25.39
2022-08-10T20:51:09.423Z,25.39
2022-08-10T20:53:43.600Z,25.39
2022-08-10T20:56:16.072Z,25.38
2022-08-10T20:59:17.655Z,25.39
2022-08-10T21:02:06.256Z,25.40
2022-08-10T21:04:45.184Z,25.40
2022-08-10T21:10:42.774Z,25.39
2022-08-10T21:13:18.776Z,25.39
2022-08-10T21:15:55.655Z,25.39
2022-08-10T21:18:34.912Z,25.39
2022-08-10T21:21:08.558Z,25.37
2022-08-10T21:23:38.512Z,25.35
2022-08-10T21:26:08.866Z,25.34
2022-08-10T21:28:52.261Z,25.33
2022-08-10T21:31:28.338Z,25.32
2022-08-10T21:34:05.965Z,25.31
2022-08-10T21:36:34.910Z,25.30
2022-08-10T21:39:07.557Z,25.30
2022-08-10T21:42:01.032Z,25.29
2022-08-10T21:45:01.095Z,25.29
2022-08-10T21:48:07.078Z,25.28
2022-08-10T21:51:06.635Z,25.27
2022-08-10T21:53:55.002Z,25.25
2022-08-10T21:56:42.655Z,25.25
2022-08-10T21:59:34.941Z,25.24
2022-08-10T22:02:22.317Z,25.23
2022-08-10T22:05:17.366Z,25.22
2022-08-10T22:08:03.279Z,25.21
2022-08-10T22:10:49.250Z,25.22
2022-08-10T22:13:35.568Z,25.21
2022-08-10T22:16:25.027Z,25.20
2022-08-10T22:19:14.563Z,25.19
2022-08-10T22:22:05.515Z,25.18
2022-08-10T22:25:16.686Z,25.17
2022-08-10T22:28:02.832Z,25.17
2022-08-10T22:31:14.782Z,25.17
2022-08-10T22:34:00.654Z,25.14
2022-08-10T22:36:59.521Z,25.14
2022-08-10T22:40:11.020Z,25.13
2022-08-10T22:43:10.338Z,25.12
2022-08-10T22:45:57.887Z,25.12
2022-08-10T22:48:43.156Z,25.10
2022-08-10T22:51:16.261Z,25.10
2022-08-10T22:54:04.394Z,25.10
2022-08-10T22:56:50.018Z,25.09
2022-08-10T22:59:27.523Z,25.08
2022-08-10T23:02:08.621Z,25.08
2022-08-10T23:04:45.125Z,25.08
2022-08-10T23:07:21.817Z,25.06
2022-08-10T23:09:56.467Z,25.05
2022-08-10T23:12:25.868Z,25.06
2022-08-10T23:15:11.976Z,25.05
2022-08-10T23:18:00.409Z,25.04
2022-08-10T23:20:30.423Z,25.04
2022-08-10T23:23:07.404Z,25.05
2022-08-10T23:25:56.127Z,25.03
2022-08-10T23:28:39.421Z,25.04
2022-08-10T23:31:14.418Z,25.02
2022-08-10T23:33:42.885Z,25.02
2022-08-10T23:36:32.877Z,25.02
2022-08-10T23:39:26.660Z,25.01
2022-08-10T23:41:52.987Z,25.01
2022-08-10T23:44:21.534Z,24.99
2022-08-10T23:46:49.667Z,24.99
2022-08-10T23:49:18.156Z,24.99
2022-08-10T23:51:54.900Z,24.99
2022-08-10T23:54:26.141Z,24.98
2022-08-10T23:57:01.150Z,24.98
2022-08-10T23:59:29.787Z,24.97
